createdAt,value
2023-04-06T00:00:10.558Z,-0.05
2023-04-06T00:02:16.822Z,-0.04
2023-04-06T00:04:24.070Z,0
2023-04-06T00:06:30.657Z,0
2023-04-06T00:08:37.314Z,0.02
2023-04-06T00:10:43.746Z,0.03
2023-04-06T00:12:50.334Z,0.01
2023-04-06T00:14:56.921Z,0.02
2023-04-06T00:17:03.806Z,0.05
2023-04-06T00:19:10.628Z,0.07
2023-04-06T00:21:17.753Z,0.05
2023-04-06T00:23:24.403Z,0.05
2023-04-06T00:25:30.746Z,0.17
2023-04-06T00:27:37.607Z,0.19
2023-04-06T00:29:45.012Z,0.19
2023-04-06T00:31:52.110Z,0.24
2023-04-06T00:33:58.770Z,0.32
2023-04-06T00:36:05.392Z,0.36
2023-04-06T00:38:12.290Z,0.38
2023-04-06T00:40:18.973Z,0.37
2023-04-06T00:42:25.469Z,0.34
2023-04-06T00:44:33.126Z,0.34
2023-04-06T00:46:39.866Z,0.32
2023-04-06T00:48:46.507Z,0.28
2023-04-06T00:50:53.586Z,0.22
2023-04-06T00:53:00.689Z,0.18
2023-04-06T00:55:06.986Z,0.17
2023-04-06T00:57:13.740Z,0.14
2023-04-06T00:59:20.290Z,0.12
2023-04-06T01:01:27.107Z,0.1
2023-04-06T01:03:34.019Z,0.08
2023-04-06T01:05:40.750Z,0.07
2023-04-06T01:07:48.088Z,0.06
2023-04-06T01:09:55.281Z,0.04
2023-04-06T01:12:01.952Z,0.03
2023-04-06T01:14:09.058Z,0.02
2023-04-06T01:16:16.224Z,0.02
2023-04-06T01:18:23.935Z,-0.01
2023-04-06T01:20:30.405Z,-0.04
2023-04-06T01:22:37.223Z,-0.04
2023-04-06T01:24:44.102Z,-0.05
2023-04-06T01:26:50.372Z,-0.03
2023-04-06T01:28:57.023Z,-0.07
2023-04-06T01:31:04.320Z,-0.09
2023-04-06T01:33:11.040Z,-0.13
2023-04-06T01:35:17.510Z,-0.12
2023-04-06T01:37:24.373Z,-0.14
2023-04-06T01:39:30.734Z,-0.15
2023-04-06T01:41:37.484Z,-0.14
2023-04-06T01:43:44.893Z,-0.1
2023-04-06T01:45:51.383Z,-0.1
2023-04-06T01:47:57.717Z,-0.11
2023-04-06T01:50:04.866Z,-0.14
2023-04-06T01:52:11.533Z,-0.14
2023-04-06T01:54:18.268Z,-0.15
2023-04-06T01:56:25.308Z,-0.2
2023-04-06T01:58:31.676Z,-0.27
2023-04-06T02:00:38.258Z,-0.33
2023-04-06T02:02:48.538Z,-0.41
2023-04-06T02:04:55.400Z,-0.44
2023-04-06T02:07:02.567Z,-0.47
2023-04-06T02:09:10.087Z,-0.49
2023-04-06T02:11:16.644Z,-0.52
2023-04-06T02:13:23.420Z,-0.54
2023-04-06T02:15:30.167Z,-0.57
2023-04-06T02:17:37.085Z,-0.62
2023-04-06T02:19:43.480Z,-0.66
2023-04-06T02:21:51.257Z,-0.72
2023-04-06T02:23:58.402Z,-0.79
2023-04-06T02:26:05.024Z,-0.84
2023-04-06T02:28:11.816Z,-0.9
2023-04-06T02:30:18.226Z,-0.96
2023-04-06T02:32:25.037Z,-1.03
2023-04-06T02:34:32.434Z,-1.09
2023-04-06T02:36:39.370Z,-1.16
2023-04-06T02:38:46.364Z,-1.22
2023-04-06T02:40:53.272Z,-1.26
2023-04-06T02:42:59.612Z,-1.32
2023-04-06T02:45:06.390Z,-1.37
2023-04-06T02:47:12.656Z,-1.4
2023-04-06T02:49:19.118Z,-1.4
2023-04-06T02:51:25.230Z,-1.38
2023-04-06T02:53:32.347Z,-1.35
2023-04-06T02:55:38.816Z,-1.32
2023-04-06T02:57:45.006Z,-1.25
2023-04-06T02:59:51.594Z,-1.18
2023-04-06T03:01:58.172Z,-1.13
2023-04-06T03:04:04.693Z,-1.06
2023-04-06T03:06:12.754Z,-1
2023-04-06T03:08:19.500Z,-0.99
2023-04-06T03:10:26.105Z,-0.98
2023-04-06T03:12:33.313Z,-0.95
2023-04-06T03:14:40.130Z,-0.96
2023-04-06T03:16:46.392Z,-1
2023-04-06T03:18:53.435Z,-1.02
2023-04-06T03:20:59.903Z,-1.04
2023-04-06T03:23:06.926Z,-1.07
2023-04-06T03:25:13.874Z,-1.1
2023-04-06T03:27:20.938Z,-1.09
2023-04-06T03:29:27.355Z,-1.1
2023-04-06T03:31:34.412Z,-1.1
2023-04-06T03:33:40.945Z,-1.12
2023-04-06T03:35:47.899Z,-1.15
2023-04-06T03:37:55.140Z,-1.2
2023-04-06T03:40:01.988Z,-1.24
2023-04-06T03:42:08.509Z,-1.26
2023-04-06T03:44:15.000Z,-1.26
2023-04-06T03:46:22.844Z,-1.26
2023-04-06T03:48:29.997Z,-1.25
2023-04-06T03:50:36.455Z,-1.24
2023-04-06T03:52:42.907Z,-1.17
2023-04-06T03:54:50.115Z,-1.11
2023-04-06T03:56:57.570Z,-1.06
2023-04-06T03:59:04.167Z,-0.96
2023-04-06T04:01:12.425Z,-0.9
2023-04-06T04:03:19.439Z,-0.85
2023-04-06T04:05:26.384Z,-0.8
2023-04-06T04:07:33.214Z,-0.76
2023-04-06T04:09:40.523Z,-0.75
2023-04-06T04:11:50.377Z,-0.77
2023-04-06T04:13:56.997Z,-0.79
2023-04-06T04:16:04.566Z,-0.77
2023-04-06T04:18:11.069Z,-0.72
2023-04-06T04:20:17.716Z,-0.67
2023-04-06T04:22:24.217Z,-0.65
2023-04-06T04:24:30.908Z,-0.68
2023-04-06T04:26:38.097Z,-0.7
2023-04-06T04:28:44.611Z,-0.68
2023-04-06T04:30:51.049Z,-0.61
2023-04-06T04:32:58.173Z,-0.53
2023-04-06T04:35:05.072Z,-0.44
2023-04-06T04:37:11.963Z,-0.37
2023-04-06T04:39:18.678Z,-0.27
2023-04-06T04:41:25.099Z,-0.17
2023-04-06T04:43:32.841Z,-0.06
2023-04-06T04:45:39.984Z,0.03
2023-04-06T04:47:46.401Z,0.12
2023-04-06T04:49:54.108Z,0.2
2023-04-06T04:52:01.049Z,0.32
2023-04-06T04:54:07.511Z,0.4
2023-04-06T04:56:14.699Z,0.48
2023-04-06T04:58:21.361Z,0.55
2023-04-06T05:00:27.475Z,0.62
2023-04-06T05:02:34.332Z,0.65
2023-04-06T05:04:41.280Z,0.65
2023-04-06T05:06:48.761Z,0.66
2023-04-06T05:08:56.405Z,0.68
2023-04-06T05:11:03.045Z,0.71
2023-04-06T05:13:09.457Z,0.71
2023-04-06T05:15:15.902Z,0.72
2023-04-06T05:17:22.828Z,0.76
2023-04-06T05:19:29.793Z,0.81
2023-04-06T05:21:36.527Z,0.85
2023-04-06T05:23:43.395Z,0.88
2023-04-06T05:25:50.315Z,0.99
2023-04-06T05:27:57.347Z,1.05
2023-04-06T05:30:05.354Z,1.15
2023-04-06T05:32:12.684Z,1.22
2023-04-06T05:34:19.662Z,1.32
2023-04-06T05:36:26.427Z,1.36
2023-04-06T05:38:33.176Z,1.4
2023-04-06T05:40:40.244Z,1.5
2023-04-06T05:42:46.876Z,1.59
2023-04-06T05:44:54.071Z,1.64
2023-04-06T05:47:00.460Z,1.71
2023-04-06T05:49:07.668Z,1.79
2023-04-06T05:51:15.904Z,1.85
2023-04-06T05:53:22.872Z,1.94
2023-04-06T05:55:29.144Z,2.09
2023-04-06T05:57:35.894Z,2.2
2023-04-06T05:59:43.059Z,2.26
2023-04-06T06:01:50.411Z,2.41
2023-04-06T06:03:57.014Z,2.42
2023-04-06T06:06:05.310Z,2.46
2023-04-06T06:08:12.695Z,2.49
2023-04-06T06:10:19.777Z,2.44
2023-04-06T06:12:27.409Z,2.5
2023-04-06T06:14:34.131Z,2.39
2023-04-06T06:16:41.285Z,2.48
2023-04-06T06:18:47.953Z,2.62
2023-04-06T06:20:55.086Z,2.76
2023-04-06T06:23:01.832Z,2.79
2023-04-06T06:25:08.488Z,2.85
2023-04-06T06:27:16.722Z,2.83
2023-04-06T06:29:23.825Z,2.79
2023-04-06T06:31:31.244Z,2.92
2023-04-06T06:33:38.640Z,3.08
2023-04-06T06:35:45.578Z,3.1
2023-04-06T06:37:52.785Z,3.06
2023-04-06T06:40:00.389Z,2.92
2023-04-06T06:42:07.032Z,2.99
2023-04-06T06:44:16.273Z,3.11
2023-04-06T06:46:23.422Z,3.09
2023-04-06T06:48:30.836Z,3.02
2023-04-06T06:50:40.771Z,3.04
2023-04-06T06:52:47.561Z,3.07
2023-04-06T06:54:56.451Z,3.11
2023-04-06T06:57:04.837Z,3.26
2023-04-06T06:59:11.719Z,3.5
2023-04-06T07:01:18.146Z,3.34
2023-04-06T07:03:26.210Z,3.36
2023-04-06T07:05:36.186Z,3.29
2023-04-06T07:07:46.911Z,3.26
2023-04-06T07:09:53.781Z,3.18
2023-04-06T07:12:00.160Z,3.11
2023-04-06T07:14:07.785Z,2.84
2023-04-06T07:16:15.994Z,2.85
2023-04-06T07:18:24.160Z,2.88
2023-04-06T07:20:34.732Z,2.88
2023-04-06T07:22:42.995Z,2.89
2023-04-06T07:24:50.889Z,2.77
2023-04-06T07:26:58.028Z,2.96
2023-04-06T07:29:06.290Z,2.88
2023-04-06T07:31:13.923Z,3.23
2023-04-06T07:33:21.616Z,3.33
2023-04-06T07:35:29.822Z,3.44
2023-04-06T07:37:37.968Z,3.65
2023-04-06T07:39:46.270Z,3.68
2023-04-06T07:41:54.589Z,3.68
2023-04-06T07:44:02.623Z,3.66
2023-04-06T07:46:10.631Z,3.66
2023-04-06T07:48:17.778Z,3.82
2023-04-06T07:50:25.321Z,3.83
2023-04-06T07:52:33.572Z,3.82
2023-04-06T07:54:43.718Z,4.21
2023-04-06T07:56:50.939Z,4.36
2023-04-06T07:58:57.394Z,4.46
2023-04-06T08:01:04.140Z,3.96
2023-04-06T08:03:11.905Z,3.84
2023-04-06T08:05:20.898Z,3.94
2023-04-06T08:07:29.101Z,3.82
2023-04-06T08:09:35.854Z,4.1
2023-04-06T08:11:42.717Z,4.17
2023-04-06T08:13:51.121Z,3.94
2023-04-06T08:15:58.177Z,3.76
2023-04-06T08:18:05.869Z,3.88
2023-04-06T08:20:12.665Z,3.77
2023-04-06T08:22:19.793Z,3.73
2023-04-06T08:24:27.548Z,3.67
2023-04-06T08:26:34.072Z,3.99
2023-04-06T08:28:41.471Z,3.84
2023-04-06T08:30:52.659Z,3.91
2023-04-06T08:33:00.172Z,3.77
2023-04-06T08:35:08.378Z,3.94
2023-04-06T08:37:15.982Z,3.94
2023-04-06T08:39:23.506Z,3.68
2023-04-06T08:41:30.187Z,3.55
2023-04-06T08:43:37.351Z,3.39
2023-04-06T08:45:45.192Z,3.45
2023-04-06T08:47:53.313Z,3.44
2023-04-06T08:50:01.503Z,3.4
2023-04-06T08:52:09.827Z,3.26
2023-04-06T08:54:16.644Z,3.24
2023-04-06T08:56:24.933Z,3.29
2023-04-06T08:58:38.002Z,3.26
2023-04-06T09:00:45.395Z,3.13
2023-04-06T09:02:53.141Z,3.15
2023-04-06T09:05:02.400Z,3.12
2023-04-06T09:07:11.209Z,3
2023-04-06T09:09:18.050Z,3.16
2023-04-06T09:11:29.144Z,2.97
2023-04-06T09:13:37.882Z,3.01
2023-04-06T09:15:44.943Z,2.95
2023-04-06T09:17:53.042Z,2.94
2023-04-06T09:20:01.708Z,2.96
2023-04-06T09:22:09.892Z,2.91
2023-04-06T09:24:17.879Z,3.02
2023-04-06T09:26:25.508Z,3.16
2023-04-06T09:28:33.112Z,3.37
2023-04-06T09:30:42.377Z,3.38
2023-04-06T09:32:51.232Z,3.49
2023-04-06T09:35:00.224Z,3.35
2023-04-06T09:37:07.453Z,3.04
2023-04-06T09:39:14.380Z,2.86
2023-04-06T09:41:22.370Z,2.69
2023-04-06T09:43:30.242Z,2.39
2023-04-06T09:45:37.219Z,2.34
2023-04-06T09:47:45.540Z,2.32
2023-04-06T09:49:53.010Z,2.27
2023-04-06T09:52:00.270Z,2.31
2023-04-06T09:54:07.817Z,2.56
2023-04-06T09:56:16.459Z,2.31
2023-04-06T09:58:24.606Z,2.18
2023-04-06T10:00:32.391Z,2.25
2023-04-06T10:02:39.673Z,2.25
2023-04-06T10:04:48.095Z,2.37
2023-04-06T10:06:55.039Z,2.16
2023-04-06T10:09:01.960Z,2.12
2023-04-06T10:11:08.535Z,2.17
2023-04-06T10:13:15.726Z,2.05
2023-04-06T10:15:23.664Z,1.85
2023-04-06T10:17:32.411Z,1.78
2023-04-06T10:19:40.820Z,1.83
2023-04-06T10:21:47.628Z,1.67
2023-04-06T10:23:55.594Z,1.52
2023-04-06T10:26:02.791Z,1.53
2023-04-06T10:28:10.360Z,1.45
2023-04-06T10:30:18.209Z,1.6
2023-04-06T10:32:26.482Z,1.47
2023-04-06T10:34:33.967Z,1.56
2023-04-06T10:36:41.556Z,1.43
2023-04-06T10:38:49.058Z,1.28
2023-04-06T10:40:56.894Z,1.24
2023-04-06T10:43:03.919Z,1.33
2023-04-06T10:45:11.587Z,1.34
2023-04-06T10:47:21.502Z,1.59
2023-04-06T10:49:29.824Z,1.55
2023-04-06T10:51:38.476Z,1.53
2023-04-06T10:53:46.996Z,1.61
2023-04-06T10:56:16.752Z,1.59
2023-04-06T10:58:24.402Z,1.54
2023-04-06T11:00:43.269Z,1.51
2023-04-06T11:02:57.799Z,1.46
2023-04-06T11:05:07.157Z,1.54
2023-04-06T11:07:15.663Z,1.44
2023-04-06T11:09:23.027Z,1.58
2023-04-06T11:11:30.581Z,1.67
2023-04-06T11:13:38.494Z,1.7
2023-04-06T11:15:45.927Z,1.7
2023-04-06T11:17:53.366Z,1.7
2023-04-06T11:20:02.390Z,1.72
2023-04-06T11:22:09.140Z,1.79
2023-04-06T11:24:17.028Z,1.77
2023-04-06T11:26:25.950Z,1.82
2023-04-06T11:28:33.672Z,1.89
2023-04-06T11:30:41.015Z,2.02
2023-04-06T11:32:47.718Z,1.81
2023-04-06T11:34:56.412Z,1.73
2023-04-06T11:37:03.929Z,1.76
2023-04-06T11:39:11.204Z,1.77
2023-04-06T11:41:19.061Z,1.79
2023-04-06T11:43:26.046Z,1.83
2023-04-06T11:45:33.519Z,1.89
2023-04-06T11:47:41.279Z,1.91
2023-04-06T11:49:50.926Z,1.92
2023-04-06T11:51:58.996Z,2.04
2023-04-06T11:54:05.653Z,2.07
2023-04-06T11:56:13.019Z,2.11
2023-04-06T11:58:20.830Z,2.14
2023-04-06T12:00:28.407Z,2.16
2023-04-06T12:02:36.046Z,2.21
2023-04-06T12:04:43.635Z,2.03
2023-04-06T12:06:51.227Z,2.04
2023-04-06T12:08:58.306Z,2.08
2023-04-06T12:11:06.146Z,2.1
2023-04-06T12:13:13.986Z,2.18
2023-04-06T12:15:20.504Z,2.24
2023-04-06T12:17:26.630Z,2.17
2023-04-06T12:19:33.412Z,2.08
2023-04-06T12:21:41.193Z,2.16
2023-04-06T12:23:47.699Z,2.2
2023-04-06T12:25:55.890Z,2.17
2023-04-06T12:28:02.670Z,2.15
2023-04-06T12:30:10.775Z,2.22
2023-04-06T12:32:18.363Z,2.17
2023-04-06T12:34:24.817Z,2.26
2023-04-06T12:36:32.173Z,2.09
2023-04-06T12:38:39.122Z,2.05
2023-04-06T12:40:46.916Z,2.14
2023-04-06T12:42:54.095Z,2.24
2023-04-06T12:45:02.020Z,2.23
2023-04-06T12:49:32.061Z,2.17
2023-04-06T12:51:39.664Z,2.23
2023-04-06T12:53:47.143Z,2.22
2023-04-06T12:55:55.026Z,2.27
2023-04-06T12:58:01.974Z,2.17
2023-04-06T13:00:09.705Z,2.15
2023-04-06T13:02:18.239Z,2.13
2023-04-06T13:04:26.539Z,2.23
2023-04-06T13:06:33.664Z,2.29
2023-04-06T13:08:41.114Z,2.28
2023-04-06T13:10:49.865Z,2.31
2023-04-06T13:12:57.533Z,2.19
2023-04-06T13:15:05.445Z,2.33
2023-04-06T13:17:22.677Z,2.27
2023-04-06T13:19:38.671Z,2.35
2023-04-06T13:22:06.574Z,2.28
2023-04-06T13:24:29.805Z,2.35
2023-04-06T13:26:55.067Z,2.44
2023-04-06T13:29:40.585Z,2.5
2023-04-06T13:41:42.920Z,2.39
2023-04-06T13:44:14.178Z,2.37
2023-04-06T13:46:52.712Z,2.33
2023-04-06T13:49:44.628Z,2.36
2023-04-06T13:52:02.585Z,2.33
2023-04-06T13:54:30.037Z,2.34
2023-04-06T13:57:30.268Z,2.36
2023-04-06T14:00:23.090Z,2.25
2023-04-06T14:02:35.705Z,2.34
2023-04-06T14:04:43.016Z,2.23
2023-04-06T14:09:18.246Z,2.44
2023-04-06T14:11:31.587Z,2.29
2023-04-06T14:13:43.079Z,2.28
2023-04-06T14:16:06.789Z,2.31
2023-04-06T14:18:18.302Z,2.29
2023-04-06T14:20:53.363Z,2.35
2023-04-06T14:23:20.640Z,2.19
2023-04-06T14:25:31.659Z,2.24
2023-04-06T14:27:54.786Z,2.28
2023-04-06T14:30:18.283Z,2.2
2023-04-06T14:32:41.044Z,2.24
2023-04-06T14:37:50.740Z,2.18
2023-04-06T14:40:05.965Z,2.19
2023-04-06T14:42:22.921Z,2.19
2023-04-06T14:44:32.510Z,2.17
2023-04-06T14:49:38.243Z,2.18
2023-04-06T14:52:06.360Z,2.17
2023-04-06T14:54:26.478Z,2.19
2023-04-06T14:56:35.955Z,2.2
2023-04-06T14:58:47.687Z,2.17
2023-04-06T15:01:06.249Z,2.2
2023-04-06T15:03:23.587Z,2.2
2023-04-06T15:05:35.506Z,2.19
2023-04-06T15:07:48.589Z,2.21
2023-04-06T15:10:07.817Z,2.27
2023-04-06T15:12:24.756Z,2.26
2023-04-06T15:14:33.586Z,2.25
2023-04-06T15:19:08.273Z,2.17
2023-04-06T15:21:19.714Z,2.19
2023-04-06T15:23:31.335Z,2.23
2023-04-06T15:29:08.328Z,2.16
2023-04-06T15:31:24.425Z,2.18
2023-04-06T15:50:43.009Z,2.13
2023-04-06T15:52:53.742Z,2.13
2023-04-06T15:55:15.646Z,2.13
2023-04-06T15:57:26.090Z,2.09
2023-04-06T16:00:15.103Z,2.07
2023-04-06T16:02:24.929Z,2.06
2023-04-06T16:04:36.569Z,2.09
2023-04-06T16:06:50.499Z,2.13
2023-04-06T16:08:59.952Z,2.06
2023-04-06T16:11:14.496Z,2.09
2023-04-06T16:13:27.140Z,2.07
2023-04-06T16:15:35.434Z,2.09
2023-04-06T16:17:49.069Z,2.08
2023-04-06T16:19:57.900Z,2.06
2023-04-06T16:22:11.444Z,2.04
2023-04-06T16:24:22.603Z,2.09
2023-04-06T16:26:32.640Z,2.08
2023-04-06T16:28:41.260Z,2.07
2023-04-06T16:30:57.336Z,2.07
2023-04-06T16:33:09.758Z,2.06
2023-04-06T16:35:21.374Z,2.06
2023-04-06T16:37:29.836Z,2.07
2023-04-06T16:39:40.959Z,2.08
2023-04-06T16:41:50.491Z,2.06
2023-04-06T16:44:00.236Z,2.09
2023-04-06T16:46:08.575Z,2.06
2023-04-06T16:48:17.560Z,2.06
2023-04-06T16:52:50.613Z,1.99
2023-04-06T16:54:58.936Z,1.99
2023-04-06T16:57:07.239Z,1.98
2023-04-06T16:59:18.159Z,2
2023-04-06T17:01:30.838Z,1.99
2023-04-06T17:03:44.483Z,1.97
2023-04-06T17:05:55.213Z,1.99
2023-04-06T17:08:03.586Z,1.98
2023-04-06T17:10:32.739Z,1.98
2023-04-06T17:13:07.358Z,1.96
2023-04-06T17:15:20.516Z,1.98
2023-04-06T17:17:29.818Z,1.97
2023-04-06T17:19:39.416Z,1.96
2023-04-06T17:21:48.577Z,1.94
2023-04-06T17:24:01.803Z,1.95
2023-04-06T17:26:10.757Z,1.96
2023-04-06T17:30:41.199Z,1.92
2023-04-06T17:32:49.457Z,1.93
2023-04-06T17:34:58.952Z,1.9
2023-04-06T17:37:07.254Z,1.9
2023-04-06T17:39:18.295Z,1.91
2023-04-06T17:41:26.532Z,1.95
2023-04-06T17:43:36.466Z,1.94
2023-04-06T17:45:45.460Z,1.92
2023-04-06T17:47:55.948Z,1.92
2023-04-06T17:50:04.108Z,1.91
2023-04-06T17:52:15.623Z,1.93
2023-04-06T17:54:23.636Z,1.91
2023-04-06T17:56:34.451Z,1.94
2023-04-06T17:58:42.594Z,1.94
2023-04-06T18:00:54.037Z,1.95
2023-04-06T18:03:02.337Z,1.94
2023-04-06T18:05:11.212Z,1.97
2023-04-06T18:07:20.024Z,1.98
2023-04-06T18:09:29.849Z,1.98
2023-04-06T18:11:38.632Z,1.97
2023-04-06T18:13:48.207Z,1.96
2023-04-06T18:15:56.837Z,1.97
2023-04-06T18:18:04.972Z,1.96
2023-04-06T18:20:15.159Z,1.97
2023-04-06T18:22:24.665Z,1.99
2023-04-06T18:24:41.859Z,2.02
2023-04-06T18:26:50.697Z,2
2023-04-06T18:28:58.553Z,2.02
2023-04-06T18:31:07.528Z,2.01
2023-04-06T18:33:16.153Z,2
2023-04-06T18:35:24.095Z,2.01
2023-04-06T18:37:32.815Z,2.04
2023-04-06T18:39:40.611Z,2.06
2023-04-06T18:41:48.549Z,2.05
2023-04-06T18:43:57.076Z,2.06
2023-04-06T18:46:05.121Z,2.08
2023-04-06T18:48:12.652Z,2.1
2023-04-06T18:50:20.892Z,2.1
2023-04-06T18:52:28.890Z,2.11
2023-04-06T18:54:37.499Z,2.12
2023-04-06T18:56:47.027Z,2.15
2023-04-06T18:58:56.316Z,2.18
2023-04-06T19:01:05.911Z,2.2
2023-04-06T19:03:13.914Z,2.19
2023-04-06T19:05:26.690Z,2.19
2023-04-06T19:07:35.182Z,2.22
2023-04-06T19:09:46.128Z,2.24
2023-04-06T19:11:55.005Z,2.26
2023-04-06T19:14:03.853Z,2.24
2023-04-06T19:16:12.173Z,2.27
2023-04-06T19:18:20.890Z,2.27
2023-04-06T19:20:31.305Z,2.28
2023-04-06T19:22:39.966Z,2.28
2023-04-06T19:24:49.760Z,2.3
2023-04-06T19:26:58.587Z,2.32
2023-04-06T19:29:06.838Z,2.34
2023-04-06T19:31:17.461Z,2.34
2023-04-06T19:33:26.131Z,2.35
2023-04-06T19:35:35.992Z,2.36
2023-04-06T19:37:44.158Z,2.38
2023-04-06T19:39:54.010Z,2.41
2023-04-06T19:42:03.180Z,2.41
2023-04-06T19:44:13.887Z,2.39
2023-04-06T19:46:23.245Z,2.44
2023-04-06T19:48:32.176Z,2.43
2023-04-06T19:50:41.557Z,2.42
2023-04-06T19:52:49.570Z,2.44
2023-04-06T19:54:57.273Z,2.47
2023-04-06T19:57:07.116Z,2.49
2023-04-06T19:59:16.244Z,2.49
2023-04-06T20:01:24.656Z,2.51
2023-04-06T20:03:34.639Z,2.58
2023-04-06T20:05:43.645Z,2.56
2023-04-06T20:07:51.595Z,2.57
2023-04-06T20:09:59.631Z,2.6
2023-04-06T20:12:08.086Z,2.59
2023-04-06T20:14:15.899Z,2.57
2023-04-06T20:16:25.060Z,2.61
2023-04-06T20:18:33.872Z,2.65
2023-04-06T20:20:41.804Z,2.64
2023-04-06T20:22:49.231Z,2.66
2023-04-06T20:24:57.264Z,2.68
2023-04-06T20:27:05.773Z,2.7
2023-04-06T20:29:15.232Z,2.67
2023-04-06T20:31:23.738Z,2.72
2023-04-06T20:33:31.366Z,2.71
2023-04-06T20:35:38.992Z,2.72
2023-04-06T20:37:49.003Z,2.74
2023-04-06T20:39:56.778Z,2.75
2023-04-06T20:42:04.984Z,2.74
2023-04-06T20:44:14.683Z,2.75
2023-04-06T20:46:24.030Z,2.78
2023-04-06T20:48:33.532Z,2.77
2023-04-06T20:50:41.235Z,2.79
2023-04-06T20:52:49.968Z,2.79
2023-04-06T20:54:58.161Z,2.79
2023-04-06T20:57:06.061Z,2.79
2023-04-06T20:59:14.321Z,2.8
2023-04-06T21:01:22.982Z,2.84
2023-04-06T21:03:31.012Z,2.82
2023-04-06T21:05:39.221Z,2.84
2023-04-06T21:07:46.459Z,2.86
2023-04-06T21:09:54.858Z,2.85
2023-04-06T21:12:02.922Z,2.85
2023-04-06T21:14:09.330Z,2.88
2023-04-06T21:16:16.961Z,2.88
2023-04-06T21:18:24.481Z,2.9
2023-04-06T21:20:31.349Z,2.91
2023-04-06T21:22:40.664Z,2.94
2023-04-06T21:24:47.373Z,2.92
2023-04-06T21:26:55.806Z,2.96
2023-04-06T21:29:03.335Z,2.99
2023-04-06T21:31:10.165Z,2.97
2023-04-06T21:33:16.835Z,3.01
2023-04-06T21:35:24.250Z,3
2023-04-06T21:37:30.820Z,2.99
2023-04-06T21:39:37.177Z,3.01
2023-04-06T21:41:43.690Z,3.02
2023-04-06T21:43:50.098Z,3.03
2023-04-06T21:45:58.023Z,3.06
2023-04-06T21:48:04.844Z,3.05
2023-04-06T21:50:11.960Z,3.07
2023-04-06T21:52:19.067Z,3.07
2023-04-06T21:54:25.450Z,3.07
2023-04-06T21:56:32.879Z,3.1
2023-04-06T21:58:40.880Z,3.12
2023-04-06T22:00:47.449Z,3.1
2023-04-06T22:02:54.644Z,3.13
2023-04-06T22:05:02.047Z,3.15
2023-04-06T22:07:09.105Z,3.13
2023-04-06T22:09:16.781Z,3.14
2023-04-06T22:11:23.965Z,3.13
2023-04-06T22:13:30.889Z,3.14
2023-04-06T22:15:37.611Z,3.16
2023-04-06T22:17:43.875Z,3.15
2023-04-06T22:19:51.300Z,3.16
2023-04-06T22:21:58.329Z,3.17
2023-04-06T22:24:05.289Z,3.19
2023-04-06T22:26:11.982Z,3.17
2023-04-06T22:28:19.010Z,3.18
2023-04-06T22:30:25.444Z,3.17
2023-04-06T22:32:32.462Z,3.18
2023-04-06T22:34:39.697Z,3.18
2023-04-06T22:36:46.684Z,3.19
2023-04-06T22:38:53.582Z,3.21
2023-04-06T22:41:00.011Z,3.19
2023-04-06T22:43:09.519Z,3.2
2023-04-06T22:45:16.338Z,3.21
2023-04-06T22:47:23.112Z,3.22
2023-04-06T22:49:30.262Z,3.23
2023-04-06T22:51:36.821Z,3.23
2023-04-06T22:53:44.236Z,3.24
2023-04-06T22:55:52.953Z,3.25
2023-04-06T22:57:59.288Z,3.24
2023-04-06T23:00:05.963Z,3.28
2023-04-06T23:02:12.578Z,3.26
2023-04-06T23:04:19.836Z,3.25
2023-04-06T23:06:27.507Z,3.25
2023-04-06T23:08:34.038Z,3.29
2023-04-06T23:10:40.597Z,3.31
2023-04-06T23:12:49.939Z,3.29
2023-04-06T23:14:56.710Z,3.3
2023-04-06T23:17:03.684Z,3.32
2023-04-06T23:19:10.513Z,3.31
2023-04-06T23:21:16.836Z,3.31
2023-04-06T23:23:25.118Z,3.32
2023-04-06T23:25:32.084Z,3.33
2023-04-06T23:27:39.470Z,3.34
2023-04-06T23:29:46.762Z,3.33
2023-04-06T23:31:53.492Z,3.34
2023-04-06T23:34:02.826Z,3.36
2023-04-06T23:36:10.369Z,3.35
2023-04-06T23:38:17.606Z,3.36
2023-04-06T23:40:24.423Z,3.37
2023-04-06T23:42:30.681Z,3.42
2023-04-06T23:44:39.844Z,3.42
2023-04-06T23:46:46.771Z,3.4
2023-04-06T23:48:54.062Z,3.43
2023-04-06T23:51:01.299Z,3.46
2023-04-06T23:53:07.759Z,3.48
2023-04-06T23:55:14.687Z,3.51
2023-04-06T23:57:24.054Z,3.53
2023-04-06T23:59:30.873Z,3.48
